sensor_id;sensor_type;location;lat;lon;timestamp;pressure;altitude;pressure_sealevel;temperature;humidity
46087;BME280;31824;49.648;8.640;2023-02-11T00:02:30;102409.78;;;1.69;100.00
46087;BME280;31824;49.648;8.640;2023-02-11T00:05:32;102409.88;;;1.80;100.00
46087;BME280;31824;49.648;8.640;2023-02-11T00:08:35;102402.09;;;1.80;100.00
46087;BME280;31824;49.648;8.640;2023-02-11T00:11:37;102401.53;;;1.98;100.00
46087;BME280;31824;49.648;8.640;2023-02-11T00:14:38;102396.03;;;1.85;100.00
46087;BME280;31824;49.648;8.640;2023-02-11T00:17:40;102401.44;;;1.87;100.00
46087;BME280;31824;49.648;8.640;2023-02-11T00:20:42;102405.50;;;1.91;100.00
46087;BME280;31824;49.648;8.640;2023-02-11T00:23:46;102402.78;;;1.79;100.00
46087;BME280;31824;49.648;8.640;2023-02-11T00:26:48;102415.31;;;1.82;100.00
46087;BME280;31824;49.648;8.640;2023-02-11T00:29:49;102414.13;;;1.80;100.00
46087;BME280;31824;49.648;8.640;2023-02-11T00:32:51;102407.78;;;1.83;100.00
46087;BME280;31824;49.648;8.640;2023-02-11T00:35:54;102407.38;;;1.92;100.00
46087;BME280;31824;49.648;8.640;2023-02-11T00:38:58;102405.34;;;1.74;100.00
46087;BME280;31824;49.648;8.640;2023-02-11T00:42:01;102405.09;;;1.72;100.00
46087;BME280;31824;49.648;8.640;2023-02-11T00:45:03;102402.06;;;1.75;100.00
46087;BME280;31824;49.648;8.640;2023-02-11T00:48:05;102401.63;;;1.77;100.00
46087;BME280;31824;49.648;8.640;2023-02-11T00:51:07;102397.38;;;1.78;100.00
46087;BME280;31824;49.648;8.640;2023-02-11T00:54:10;102394.94;;;1.68;100.00
46087;BME280;31824;49.648;8.640;2023-02-11T00:57:12;102404.03;;;1.60;100.00
46087;BME280;31824;49.648;8.640;2023-02-11T01:00:15;102406.53;;;1.49;100.00
46087;BME280;31824;49.648;8.640;2023-02-11T01:03:18;102399.66;;;1.71;100.00
46087;BME280;31824;49.648;8.640;2023-02-11T01:06:19;102412.13;;;1.67;100.00
46087;BME280;31824;49.648;8.640;2023-02-11T01:09:23;102405.09;;;1.72;100.00
46087;BME280;31824;49.648;8.640;2023-02-11T01:12:24;102407.41;;;1.65;100.00
46087;BME280;31824;49.648;8.640;2023-02-11T01:15:26;102390.38;;;1.61;100.00
46087;BME280;31824;49.648;8.640;2023-02-11T01:18:29;102385.22;;;1.61;100.00
46087;BME280;31824;49.648;8.640;2023-02-11T01:21:31;102389.78;;;1.74;100.00
46087;BME280;31824;49.648;8.640;2023-02-11T01:24:34;102383.28;;;1.81;100.00
46087;BME280;31824;49.648;8.640;2023-02-11T01:27:36;102385.63;;;1.80;100.00
46087;BME280;31824;49.648;8.640;2023-02-11T01:30:38;102385.91;;;1.87;100.00
46087;BME280;31824;49.648;8.640;2023-02-11T01:33:40;102381.53;;;1.97;100.00
46087;BME280;31824;49.648;8.640;2023-02-11T01:36:43;102379.22;;;2.05;100.00
46087;BME280;31824;49.648;8.640;2023-02-11T01:39:46;102365.25;;;1.98;100.00
46087;BME280;31824;49.648;8.640;2023-02-11T01:42:48;102357.44;;;1.93;100.00
46087;BME280;31824;49.648;8.640;2023-02-11T01:45:58;102367.69;;;2.08;100.00
46087;BME280;31824;49.648;8.640;2023-02-11T01:49:04;102358.94;;;2.08;100.00
46087;BME280;31824;49.648;8.640;2023-02-11T01:52:09;102350.69;;;2.05;100.00
46087;BME280;31824;49.648;8.640;2023-02-11T01:55:14;102349.00;;;1.99;100.00
46087;BME280;31824;49.648;8.640;2023-02-11T01:58:37;102353.53;;;2.06;100.00
46087;BME280;31824;49.648;8.640;2023-02-11T02:01:45;102348.03;;;1.93;100.00
46087;BME280;31824;49.648;8.640;2023-02-11T02:04:52;102332.47;;;1.93;100.00
46087;BME280;31824;49.648;8.640;2023-02-11T02:08:01;102327.34;;;2.05;100.00
46087;BME280;31824;49.648;8.640;2023-02-11T02:11:05;102321.97;;;2.09;100.00
46087;BME280;31824;49.648;8.640;2023-02-11T02:14:10;102317.25;;;2.12;100.00
46087;BME280;31824;49.648;8.640;2023-02-11T02:17:22;102326.25;;;2.14;100.00
46087;BME280;31824;49.648;8.640;2023-02-11T02:20:57;102325.81;;;2.22;100.00
46087;BME280;31824;49.648;8.640;2023-02-11T02:24:21;102318.03;;;2.22;100.00
46087;BME280;31824;49.648;8.640;2023-02-11T02:27:47;102316.13;;;2.21;100.00
46087;BME280;31824;49.648;8.640;2023-02-11T02:31:18;102309.06;;;2.26;100.00
46087;BME280;31824;49.648;8.640;2023-02-11T02:34:29;102302.72;;;2.24;100.00
46087;BME280;31824;49.648;8.640;2023-02-11T02:37:39;102303.41;;;2.23;100.00
46087;BME280;31824;49.648;8.640;2023-02-11T02:40:45;102302.47;;;2.22;100.00
46087;BME280;31824;49.648;8.640;2023-02-11T02:43:56;102302.25;;;2.26;100.00
46087;BME280;31824;49.648;8.640;2023-02-11T02:46:58;102289.25;;;2.21;100.00
46087;BME280;31824;49.648;8.640;2023-02-11T02:50:02;102292.56;;;2.19;100.00
46087;BME280;31824;49.648;8.640;2023-02-11T02:53:15;102288.97;;;2.13;100.00
46087;BME280;31824;49.648;8.640;2023-02-11T02:56:24;102279.31;;;2.12;100.00
46087;BME280;31824;49.648;8.640;2023-02-11T02:59:40;102286.34;;;2.08;100.00
46087;BME280;31824;49.648;8.640;2023-02-11T03:02:57;102284.38;;;1.95;100.00
46087;BME280;31824;49.648;8.640;2023-02-11T03:06:09;102292.44;;;2.02;100.00
46087;BME280;31824;49.648;8.640;2023-02-11T03:09:15;102309.38;;;1.95;100.00
46087;BME280;31824;49.648;8.640;2023-02-11T03:12:20;102308.16;;;1.93;100.00
46087;BME280;31824;49.648;8.640;2023-02-11T03:15:26;102302.06;;;1.92;100.00
46087;BME280;31824;49.648;8.640;2023-02-11T03:18:31;102304.84;;;1.88;100.00
46087;BME280;31824;49.648;8.640;2023-02-11T03:21:37;102314.75;;;1.85;100.00
46087;BME280;31824;49.648;8.640;2023-02-11T03:24:40;102324.63;;;1.88;100.00
46087;BME280;31824;49.648;8.640;2023-02-11T03:27:45;102326.81;;;1.96;100.00
46087;BME280;31824;49.648;8.640;2023-02-11T03:30:52;102319.22;;;1.92;100.00
46087;BME280;31824;49.648;8.640;2023-02-11T03:34:01;102308.66;;;1.96;100.00
46087;BME280;31824;49.648;8.640;2023-02-11T03:37:09;102306.06;;;1.96;100.00
46087;BME280;31824;49.648;8.640;2023-02-11T03:40:15;102300.69;;;2.00;100.00
46087;BME280;31824;49.648;8.640;2023-02-11T03:43:21;102290.81;;;2.03;100.00
46087;BME280;31824;49.648;8.640;2023-02-11T03:46:27;102302.13;;;2.09;100.00
46087;BME280;31824;49.648;8.640;2023-02-11T03:49:31;102286.34;;;2.08;100.00
46087;BME280;31824;49.648;8.640;2023-02-11T03:52:36;102289.84;;;2.02;100.00
46087;BME280;31824;49.648;8.640;2023-02-11T03:55:39;102291.47;;;1.96;100.00
46087;BME280;31824;49.648;8.640;2023-02-11T03:58:43;102291.47;;;1.96;100.00
46087;BME280;31824;49.648;8.640;2023-02-11T04:01:44;102281.50;;;1.82;100.00
46087;BME280;31824;49.648;8.640;2023-02-11T04:04:46;102277.25;;;1.83;100.00
46087;BME280;31824;49.648;8.640;2023-02-11T04:07:49;102275.88;;;1.85;100.00
46087;BME280;31824;49.648;8.640;2023-02-11T04:10:51;102261.00;;;1.84;100.00
46087;BME280;31824;49.648;8.640;2023-02-11T04:13:53;102259.34;;;1.84;100.00
46087;BME280;31824;49.648;8.640;2023-02-11T04:16:54;102255.06;;;1.79;100.00
46087;BME280;31824;49.648;8.640;2023-02-11T04:19:56;102252.69;;;1.75;100.00
46087;BME280;31824;49.648;8.640;2023-02-11T04:22:59;102229.34;;;1.69;100.00
46087;BME280;31824;49.648;8.640;2023-02-11T04:26:00;102231.44;;;1.66;100.00
46087;BME280;31824;49.648;8.640;2023-02-11T04:29:02;102236.38;;;1.65;100.00
46087;BME280;31824;49.648;8.640;2023-02-11T04:32:04;102216.81;;;1.61;100.00
46087;BME280;31824;49.648;8.640;2023-02-11T04:35:06;102223.81;;;1.51;100.00
46087;BME280;31824;49.648;8.640;2023-02-11T04:38:09;102224.13;;;1.64;100.00
46087;BME280;31824;49.648;8.640;2023-02-11T04:41:11;102233.00;;;1.55;100.00
46087;BME280;31824;49.648;8.640;2023-02-11T04:44:12;102235.03;;;1.40;100.00
46087;BME280;31824;49.648;8.640;2023-02-11T04:47:14;102248.03;;;1.46;100.00
46087;BME280;31824;49.648;8.640;2023-02-11T04:50:16;102258.22;;;1.56;100.00
46087;BME280;31824;49.648;8.640;2023-02-11T04:53:19;102252.03;;;1.49;100.00
46087;BME280;31824;49.648;8.640;2023-02-11T04:56:21;102252.47;;;1.47;100.00
46087;BME280;31824;49.648;8.640;2023-02-11T04:59:23;102253.22;;;1.46;100.00
46087;BME280;31824;49.648;8.640;2023-02-11T05:02:24;102263.31;;;1.44;100.00
46087;BME280;31824;49.648;8.640;2023-02-11T05:05:26;102262.78;;;1.35;100.00
46087;BME280;31824;49.648;8.640;2023-02-11T05:08:29;102273.94;;;1.19;100.00
46087;BME280;31824;49.648;8.640;2023-02-11T05:11:31;102276.81;;;1.26;100.00
46087;BME280;31824;49.648;8.640;2023-02-11T05:14:32;102273.31;;;1.31;100.00
46087;BME280;31824;49.648;8.640;2023-02-11T05:17:34;102276.41;;;1.34;100.00
46087;BME280;31824;49.648;8.640;2023-02-11T05:20:36;102267.13;;;1.52;100.00
46087;BME280;31824;49.648;8.640;2023-02-11T05:23:39;102248.28;;;1.47;100.00
46087;BME280;31824;49.648;8.640;2023-02-11T05:26:41;102242.84;;;1.46;100.00
46087;BME280;31824;49.648;8.640;2023-02-11T05:29:43;102247.81;;;1.50;100.00
46087;BME280;31824;49.648;8.640;2023-02-11T05:32:44;102236.19;;;1.69;100.00
46087;BME280;31824;49.648;8.640;2023-02-11T05:35:46;102230.75;;;1.67;100.00
46087;BME280;31824;49.648;8.640;2023-02-11T05:38:49;102231.41;;;1.61;100.00
46087;BME280;31824;49.648;8.640;2023-02-11T05:41:51;102236.63;;;1.66;100.00
46087;BME280;31824;49.648;8.640;2023-02-11T05:44:52;102243.16;;;1.59;100.00
46087;BME280;31824;49.648;8.640;2023-02-11T05:47:54;102248.34;;;1.59;100.00
46087;BME280;31824;49.648;8.640;2023-02-11T05:50:56;102246.44;;;1.58;100.00
46087;BME280;31824;49.648;8.640;2023-02-11T05:53:59;102237.47;;;1.50;100.00
46087;BME280;31824;49.648;8.640;2023-02-11T05:57:00;102229.13;;;1.41;100.00
46087;BME280;31824;49.648;8.640;2023-02-11T06:00:03;102242.06;;;1.35;100.00
46087;BME280;31824;49.648;8.640;2023-02-11T06:03:12;102239.09;;;1.17;100.00
46087;BME280;31824;49.648;8.640;2023-02-11T06:06:14;102236.13;;;1.31;100.00
46087;BME280;31824;49.648;8.640;2023-02-11T06:09:17;102244.63;;;1.35;100.00
46087;BME280;31824;49.648;8.640;2023-02-11T06:12:19;102233.19;;;1.45;100.00
46087;BME280;31824;49.648;8.640;2023-02-11T06:15:20;102229.38;;;1.43;100.00
46087;BME280;31824;49.648;8.640;2023-02-11T06:18:22;102218.78;;;1.41;100.00
46087;BME280;31824;49.648;8.640;2023-02-11T06:21:24;102225.63;;;1.41;100.00
46087;BME280;31824;49.648;8.640;2023-02-11T06:24:44;102242.31;;;1.43;100.00
46087;BME280;31824;49.648;8.640;2023-02-11T06:28:02;102247.47;;;1.37;100.00
46087;BME280;31824;49.648;8.640;2023-02-11T06:31:04;102262.34;;;1.44;100.00
46087;BME280;31824;49.648;8.640;2023-02-11T06:34:10;102248.97;;;1.46;100.00
46087;BME280;31824;49.648;8.640;2023-02-11T06:37:12;102246.84;;;1.49;100.00
46087;BME280;31824;49.648;8.640;2023-02-11T06:40:15;102247.78;;;1.44;100.00
46087;BME280;31824;49.648;8.640;2023-02-11T06:43:16;102241.88;;;1.45;100.00
46087;BME280;31824;49.648;8.640;2023-02-11T06:46:18;102240.06;;;1.50;100.00
46087;BME280;31824;49.648;8.640;2023-02-11T06:49:20;102259.88;;;1.55;100.00
46087;BME280;31824;49.648;8.640;2023-02-11T06:52:21;102262.53;;;1.66;100.00
46087;BME280;31824;49.648;8.640;2023-02-11T06:55:25;102261.84;;;1.67;100.00
46087;BME280;31824;49.648;8.640;2023-02-11T06:58:26;102259.28;;;1.73;100.00
46087;BME280;31824;49.648;8.640;2023-02-11T07:01:28;102257.38;;;1.72;100.00
46087;BME280;31824;49.648;8.640;2023-02-11T07:04:30;102258.59;;;1.74;100.00
46087;BME280;31824;49.648;8.640;2023-02-11T07:07:32;102248.69;;;1.72;100.00
46087;BME280;31824;49.648;8.640;2023-02-11T07:10:36;102247.97;;;1.73;100.00
46087;BME280;31824;49.648;8.640;2023-02-11T07:13:38;102256.00;;;1.74;100.00
46087;BME280;31824;49.648;8.640;2023-02-11T07:16:39;102252.66;;;1.69;100.00
46087;BME280;31824;49.648;8.640;2023-02-11T07:19:41;102256.44;;;1.72;100.00
46087;BME280;31824;49.648;8.640;2023-02-11T07:22:43;102258.31;;;1.73;100.00
46087;BME280;31824;49.648;8.640;2023-02-11T07:25:46;102256.72;;;1.79;100.00
46087;BME280;31824;49.648;8.640;2023-02-11T07:28:49;102248.94;;;1.79;100.00
46087;BME280;31824;49.648;8.640;2023-02-11T07:31:50;102257.72;;;1.85;100.00
46087;BME280;31824;49.648;8.640;2023-02-11T07:34:52;102269.75;;;1.90;100.00
46087;BME280;31824;49.648;8.640;2023-02-11T07:37:54;102256.13;;;1.97;100.00
46087;BME280;31824;49.648;8.640;2023-02-11T07:41:00;102263.91;;;2.02;100.00
46087;BME280;31824;49.648;8.640;2023-02-11T07:44:02;102270.78;;;2.08;100.00
46087;BME280;31824;49.648;8.640;2023-02-11T07:47:04;102274.38;;;2.14;100.00
46087;BME280;31824;49.648;8.640;2023-02-11T07:50:06;102264.00;;;2.14;100.00
46087;BME280;31824;49.648;8.640;2023-02-11T07:53:08;102275.09;;;2.18;100.00
46087;BME280;31824;49.648;8.640;2023-02-11T07:56:12;102280.31;;;2.24;100.00
46087;BME280;31824;49.648;8.640;2023-02-11T07:59:14;102265.72;;;2.30;100.00
46087;BME280;31824;49.648;8.640;2023-02-11T08:02:15;102261.72;;;2.32;100.00
46087;BME280;31824;49.648;8.640;2023-02-11T08:05:17;102260.31;;;2.34;100.00
46087;BME280;31824;49.648;8.640;2023-02-11T08:08:19;102258.63;;;2.29;100.00
46087;BME280;31824;49.648;8.640;2023-02-11T08:11:23;102265.97;;;2.38;100.00
46087;BME280;31824;49.648;8.640;2023-02-11T08:14:25;102267.91;;;2.44;100.00
46087;BME280;31824;49.648;8.640;2023-02-11T08:17:27;102274.75;;;2.49;100.00
46087;BME280;31824;49.648;8.640;2023-02-11T08:20:29;102271.72;;;2.52;100.00
46087;BME280;31824;49.648;8.640;2023-02-11T08:23:31;102270.56;;;2.61;100.00
46087;BME280;31824;49.648;8.640;2023-02-11T08:26:34;102278.81;;;2.64;100.00
46087;BME280;31824;49.648;8.640;2023-02-11T08:29:36;102271.97;;;2.65;100.00
46087;BME280;31824;49.648;8.640;2023-02-11T08:32:37;102263.50;;;2.66;100.00
46087;BME280;31824;49.648;8.640;2023-02-11T08:35:39;102265.38;;;2.61;100.00
46087;BME280;31824;49.648;8.640;2023-02-11T08:38:42;102263.25;;;2.59;100.00
46087;BME280;31824;49.648;8.640;2023-02-11T08:41:46;102270.09;;;2.64;100.00
46087;BME280;31824;49.648;8.640;2023-02-11T08:44:49;102267.06;;;2.72;100.00
46087;BME280;31824;49.648;8.640;2023-02-11T08:47:51;102269.66;;;2.72;100.00
46087;BME280;31824;49.648;8.640;2023-02-11T08:50:53;102279.59;;;2.80;100.00
46087;BME280;31824;49.648;8.640;2023-02-11T08:53:55;102292.34;;;2.96;100.00
46087;BME280;31824;49.648;8.640;2023-02-11T08:56:58;102288.78;;;2.84;100.00
46087;BME280;31824;49.648;8.640;2023-02-11T09:00:02;102295.41;;;2.87;100.00
46087;BME280;31824;49.648;8.640;2023-02-11T09:03:04;102298.03;;;3.04;100.00
46087;BME280;31824;49.648;8.640;2023-02-11T09:06:07;102296.63;;;3.12;100.00
46087;BME280;31824;49.648;8.640;2023-02-11T09:09:10;102291.47;;;3.29;100.00
46087;BME280;31824;49.648;8.640;2023-02-11T09:12:15;102308.47;;;3.50;100.00
46087;BME280;31824;49.648;8.640;2023-02-11T09:15:17;102316.03;;;3.48;100.00
46087;BME280;31824;49.648;8.640;2023-02-11T09:18:18;102309.16;;;3.83;100.00
46087;BME280;31824;49.648;8.640;2023-02-11T09:21:20;102304.22;;;3.73;100.00
46087;BME280;31824;49.648;8.640;2023-02-11T09:24:21;102307.03;;;3.75;100.00
46087;BME280;31824;49.648;8.640;2023-02-11T09:27:25;102306.31;;;3.64;100.00
46087;BME280;31824;49.648;8.640;2023-02-11T09:30:26;102303.03;;;3.65;100.00
46087;BME280;31824;49.648;8.640;2023-02-11T09:33:28;102310.34;;;3.40;100.00
46087;BME280;31824;49.648;8.640;2023-02-11T09:36:32;102314.16;;;3.42;100.00
46087;BME280;31824;49.648;8.640;2023-02-11T09:39:34;102313.44;;;3.48;100.00
46087;BME280;31824;49.648;8.640;2023-02-11T09:42:42;102312.97;;;3.62;100.00
46087;BME280;31824;49.648;8.640;2023-02-11T09:45:45;102311.78;;;3.71;100.00
46087;BME280;31824;49.648;8.640;2023-02-11T09:48:51;102319.56;;;3.88;100.00
46087;BME280;31824;49.648;8.640;2023-02-11T09:51:57;102311.50;;;3.98;100.00
46087;BME280;31824;49.648;8.640;2023-02-11T09:55:03;102311.00;;;4.12;100.00
46087;BME280;31824;49.648;8.640;2023-02-11T09:58:12;102308.41;;;4.06;100.00
46087;BME280;31824;49.648;8.640;2023-02-11T10:01:15;102300.84;;;4.14;100.00
46087;BME280;31824;49.648;8.640;2023-02-11T10:04:40;102293.47;;;4.22;100.00
46087;BME280;31824;49.648;8.640;2023-02-11T10:07:50;102305.09;;;4.19;100.00
46087;BME280;31824;49.648;8.640;2023-02-11T10:10:58;102305.97;;;4.31;100.00
46087;BME280;31824;49.648;8.640;2023-02-11T10:14:17;102312.66;;;4.23;100.00
46087;BME280;31824;49.648;8.640;2023-02-11T10:17:31;102309.75;;;4.33;100.00
46087;BME280;31824;49.648;8.640;2023-02-11T10:20:37;102313.97;;;4.49;100.00
46087;BME280;31824;49.648;8.640;2023-02-11T10:23:42;102318.69;;;4.52;100.00
46087;BME280;31824;49.648;8.640;2023-02-11T10:26:45;102309.25;;;4.47;100.00
46087;BME280;31824;49.648;8.640;2023-02-11T10:29:50;102315.31;;;4.64;100.00
46087;BME280;31824;49.648;8.640;2023-02-11T10:32:56;102312.75;;;4.59;100.00
46087;BME280;31824;49.648;8.640;2023-02-11T10:36:01;102309.63;;;4.67;100.00
46087;BME280;31824;49.648;8.640;2023-02-11T10:39:11;102304.97;;;4.53;100.00
46087;BME280;31824;49.648;8.640;2023-02-11T10:42:13;102303.72;;;4.68;100.00
46087;BME280;31824;49.648;8.640;2023-02-11T10:45:22;102303.63;;;4.85;100.00
46087;BME280;31824;49.648;8.640;2023-02-11T10:48:36;102295.94;;;4.56;100.00
46087;BME280;31824;49.648;8.640;2023-02-11T10:51:39;102304.88;;;4.70;100.00
46087;BME280;31824;49.648;8.640;2023-02-11T10:54:41;102307.63;;;4.88;100.00
46087;BME280;31824;49.648;8.640;2023-02-11T10:57:58;102308.75;;;4.96;100.00
46087;BME280;31824;49.648;8.640;2023-02-11T11:01:02;102309.41;;;5.06;100.00
46087;BME280;31824;49.648;8.640;2023-02-11T11:04:36;102308.13;;;5.21;100.00
46087;BME280;31824;49.648;8.640;2023-02-11T11:07:38;102302.06;;;5.39;100.00
46087;BME280;31824;49.648;8.640;2023-02-11T11:10:41;102312.63;;;5.52;100.00
46087;BME280;31824;49.648;8.640;2023-02-11T11:13:55;102306.44;;;5.82;100.00
46087;BME280;31824;49.648;8.640;2023-02-11T11:16:59;102309.78;;;6.05;100.00
46087;BME280;31824;49.648;8.640;2023-02-11T11:20:18;102307.69;;;5.78;100.00
46087;BME280;31824;49.648;8.640;2023-02-11T11:23:22;102308.31;;;6.13;100.00
46087;BME280;31824;49.648;8.640;2023-02-11T11:26:26;102315.44;;;5.84;100.00
46087;BME280;31824;49.648;8.640;2023-02-11T11:29:32;102316.69;;;6.04;100.00
46087;BME280;31824;49.648;8.640;2023-02-11T11:32:36;102306.59;;;6.19;100.00
46087;BME280;31824;49.648;8.640;2023-02-11T11:35:40;102309.94;;;6.55;100.00
46087;BME280;31824;49.648;8.640;2023-02-11T11:38:44;102310.75;;;6.30;100.00
46087;BME280;31824;49.648;8.640;2023-02-11T11:41:51;102309.59;;;6.83;100.00
46087;BME280;31824;49.648;8.640;2023-02-11T11:44:57;102301.94;;;7.48;100.00
46087;BME280;31824;49.648;8.640;2023-02-11T11:48:03;102302.47;;;7.14;100.00
46087;BME280;31824;49.648;8.640;2023-02-11T11:51:09;102300.44;;;7.24;100.00
46087;BME280;31824;49.648;8.640;2023-02-11T11:54:12;102283.66;;;7.03;100.00
46087;BME280;31824;49.648;8.640;2023-02-11T11:57:18;102280.75;;;6.89;100.00
46087;BME280;31824;49.648;8.640;2023-02-11T12:00:25;102280.38;;;6.99;100.00
46087;BME280;31824;49.648;8.640;2023-02-11T12:03:52;102279.03;;;6.58;100.00
46087;BME280;31824;49.648;8.640;2023-02-11T12:07:13;102278.44;;;6.85;100.00
46087;BME280;31824;49.648;8.640;2023-02-11T12:10:47;102270.47;;;6.59;100.00
46087;BME280;31824;49.648;8.640;2023-02-11T12:14:01;102281.94;;;6.54;100.00
46087;BME280;31824;49.648;8.640;2023-02-11T12:17:12;102282.41;;;6.57;100.00
46087;BME280;31824;49.648;8.640;2023-02-11T12:20:21;102285.44;;;6.60;100.00
46087;BME280;31824;49.648;8.640;2023-02-11T12:23:35;102280.03;;;6.71;100.00
46087;BME280;31824;49.648;8.640;2023-02-11T12:26:44;102280.50;;;6.56;100.00
46087;BME280;31824;49.648;8.640;2023-02-11T12:30:01;102281.09;;;6.48;100.00
46087;BME280;31824;49.648;8.640;2023-02-11T12:33:09;102276.16;;;6.44;100.00
46087;BME280;31824;49.648;8.640;2023-02-11T12:36:28;102280.59;;;6.50;100.00
46087;BME280;31824;49.648;8.640;2023-02-11T12:39:40;102277.88;;;6.56;100.00
46087;BME280;31824;49.648;8.640;2023-02-11T12:42:53;102283.13;;;6.56;100.00
46087;BME280;31824;49.648;8.640;2023-02-11T12:46:31;102276.50;;;6.52;100.00
46087;BME280;31824;49.648;8.640;2023-02-11T12:49:51;102271.91;;;6.75;100.00
46087;BME280;31824;49.648;8.640;2023-02-11T12:53:10;102269.59;;;6.71;100.00
46087;BME280;31824;49.648;8.640;2023-02-11T12:56:19;102279.63;;;6.87;100.00
46087;BME280;31824;49.648;8.640;2023-02-11T12:59:32;102268.06;;;6.79;100.00
46087;BME280;31824;49.648;8.640;2023-02-11T13:02:40;102270.91;;;6.81;100.00
46087;BME280;31824;49.648;8.640;2023-02-11T13:05:48;102272.28;;;6.66;100.00
46087;BME280;31824;49.648;8.640;2023-02-11T13:08:54;102269.16;;;6.50;100.00
46087;BME280;31824;49.648;8.640;2023-02-11T13:11:58;102256.25;;;6.75;100.00
46087;BME280;31824;49.648;8.640;2023-02-11T13:15:23;102253.50;;;6.87;100.00
46087;BME280;31824;49.648;8.640;2023-02-11T13:18:35;102246.16;;;6.84;100.00
46087;BME280;31824;49.648;8.640;2023-02-11T13:21:48;102252.72;;;6.88;100.00
46087;BME280;31824;49.648;8.640;2023-02-11T13:25:00;102252.09;;;6.83;100.00
46087;BME280;31824;49.648;8.640;2023-02-11T13:28:16;102250.72;;;6.80;100.00
46087;BME280;31824;49.648;8.640;2023-02-11T13:31:21;102252.31;;;6.85;100.00
46087;BME280;31824;49.648;8.640;2023-02-11T13:34:55;102255.84;;;6.85;100.00
46087;BME280;31824;49.648;8.640;2023-02-11T13:37:58;102250.59;;;6.72;100.00
46087;BME280;31824;49.648;8.640;2023-02-11T13:41:02;102250.28;;;6.76;100.00
46087;BME280;31824;49.648;8.640;2023-02-11T13:44:24;102236.06;;;6.74;100.00
46087;BME280;31824;49.648;8.640;2023-02-11T13:47:29;102231.59;;;6.73;100.00
46087;BME280;31824;49.648;8.640;2023-02-11T13:50:37;102246.25;;;6.79;100.00
46087;BME280;31824;49.648;8.640;2023-02-11T13:53:44;102242.59;;;6.84;100.00
46087;BME280;31824;49.648;8.640;2023-02-11T14:00:49;102244.66;;;6.73;100.00
46087;BME280;31824;49.648;8.640;2023-02-11T14:04:12;102250.00;;;6.81;100.00
46087;BME280;31824;49.648;8.640;2023-02-11T14:12:22;102244.97;;;6.82;100.00
46087;BME280;31824;49.648;8.640;2023-02-11T14:15:26;102236.31;;;6.76;100.00
46087;BME280;31824;49.648;8.640;2023-02-11T14:18:57;102248.41;;;6.75;100.00
46087;BME280;31824;49.648;8.640;2023-02-11T14:22:01;102238.47;;;6.73;100.00
46087;BME280;31824;49.648;8.640;2023-02-11T14:25:12;102237.13;;;6.69;100.00
46087;BME280;31824;49.648;8.640;2023-02-11T14:28:22;102249.97;;;6.68;100.00
46087;BME280;31824;49.648;8.640;2023-02-11T14:31:29;102255.22;;;6.62;100.00
46087;BME280;31824;49.648;8.640;2023-02-11T14:34:45;102254.81;;;6.59;100.00
46087;BME280;31824;49.648;8.640;2023-02-11T14:37:57;102259.59;;;6.56;100.00
46087;BME280;31824;49.648;8.640;2023-02-11T14:41:05;102257.78;;;6.49;100.00
46087;BME280;31824;49.648;8.640;2023-02-11T14:44:13;102257.28;;;6.52;100.00
46087;BME280;31824;49.648;8.640;2023-02-11T14:47:19;102259.81;;;6.57;100.00
46087;BME280;31824;49.648;8.640;2023-02-11T14:50:25;102266.78;;;6.51;100.00
46087;BME280;31824;49.648;8.640;2023-02-11T14:53:29;102265.72;;;6.44;100.00
46087;BME280;31824;49.648;8.640;2023-02-11T14:56:32;102258.72;;;6.50;100.00
46087;BME280;31824;49.648;8.640;2023-02-11T14:59:34;102262.31;;;6.50;100.00
46087;BME280;31824;49.648;8.640;2023-02-11T15:02:37;102265.63;;;6.49;100.00
46087;BME280;31824;49.648;8.640;2023-02-11T15:05:40;102274.47;;;6.44;100.00
46087;BME280;31824;49.648;8.640;2023-02-11T15:08:44;102276.56;;;6.47;100.00
46087;BME280;31824;49.648;8.640;2023-02-11T15:11:48;102273.25;;;6.48;100.00
46087;BME280;31824;49.648;8.640;2023-02-11T15:14:53;102270.72;;;6.42;100.00
46087;BME280;31824;49.648;8.640;2023-02-11T15:17:58;102271.50;;;6.54;100.00
46087;BME280;31824;49.648;8.640;2023-02-11T15:21:03;102270.97;;;6.56;100.00
46087;BME280;31824;49.648;8.640;2023-02-11T15:24:21;102282.69;;;6.53;100.00
46087;BME280;31824;49.648;8.640;2023-02-11T15:27:24;102279.81;;;6.51;100.00
46087;BME280;31824;49.648;8.640;2023-02-11T15:30:30;102284.19;;;6.45;100.00
46087;BME280;31824;49.648;8.640;2023-02-11T15:33:32;102277.28;;;6.46;100.00
46087;BME280;31824;49.648;8.640;2023-02-11T15:36:36;102287.66;;;6.51;100.00
46087;BME280;31824;49.648;8.640;2023-02-11T15:39:40;102276.28;;;6.51;100.00
46087;BME280;31824;49.648;8.640;2023-02-11T15:42:52;102278.75;;;6.44;100.00
46087;BME280;31824;49.648;8.640;2023-02-11T15:45:58;102293.25;;;6.41;100.00
46087;BME280;31824;49.648;8.640;2023-02-11T15:49:02;102287.31;;;6.42;100.00
46087;BME280;31824;49.648;8.640;2023-02-11T15:52:06;102294.53;;;6.32;100.00
46087;BME280;31824;49.648;8.640;2023-02-11T15:55:12;102288.88;;;6.29;100.00
46087;BME280;31824;49.648;8.640;2023-02-11T15:58:14;102293.75;;;6.20;100.00
46087;BME280;31824;49.648;8.640;2023-02-11T16:01:16;102283.81;;;6.18;100.00
46087;BME280;31824;49.648;8.640;2023-02-11T16:04:20;102292.78;;;6.20;100.00
46087;BME280;31824;49.648;8.640;2023-02-11T16:07:42;102292.66;;;6.13;100.00
46087;BME280;31824;49.648;8.640;2023-02-11T16:10:53;102293.84;;;6.09;100.00
46087;BME280;31824;49.648;8.640;2023-02-11T16:13:56;102302.72;;;6.04;100.00
46087;BME280;31824;49.648;8.640;2023-02-11T16:17:03;102293.91;;;6.03;100.00
46087;BME280;31824;49.648;8.640;2023-02-11T16:20:16;102290.38;;;6.03;100.00
46087;BME280;31824;49.648;8.640;2023-02-11T16:23:22;102289.13;;;6.06;100.00